Milo, Iowa
Current Conditions -  °F | °C
As of 7:55 AM on Wednesday 26 Nov 2014 (Local Time) from KOXV Reporting Station
Overcast Overcast  
Wind Chill: 19°   Ceiling: 1000
Heat Index: 28°   Visibility: 9mi
Dew Point: 27°   Wind: 10mph
Humidity: 93%   Direction: 120°ESE
Pressure: 29.88"   Gusts: NA
Location:  41.29°N, 93.44°W
Report Text: KOXV 261355Z AUTO 12009KT 9SM BKN010 OVC015 M02/M03 A2988 RMK AO2
Loading
Personal Weather Stations






























Interactive Weather Map New forecast layout! Learn more

10-Day Weather Forecast

Advertisements
Track Severe Weather on mobile